sensor_id;sensor_type;location;lat;lon;timestamp;P1;durP1;ratioP1;P2;durP2;ratioP2
65636;SDS011;52327;42.622;23.316;2023-03-01T00:01:06;1.42;;;1.33;;
65636;SDS011;52327;42.622;23.316;2023-03-01T00:03:36;2.78;;;1.15;;
65636;SDS011;52327;42.622;23.316;2023-03-01T00:06:02;2.08;;;1.27;;
65636;SDS011;52327;42.622;23.316;2023-03-01T00:08:29;1.63;;;1.48;;
65636;SDS011;52327;42.622;23.316;2023-03-01T00:13:32;5.30;;;1.90;;
65636;SDS011;52327;42.622;23.316;2023-03-01T00:15:58;2.15;;;1.38;;
65636;SDS011;52327;42.622;23.316;2023-03-01T00:18:26;1.92;;;1.50;;
65636;SDS011;52327;42.622;23.316;2023-03-01T00:20:55;2.20;;;1.40;;
65636;SDS011;52327;42.622;23.316;2023-03-01T00:23:21;2.22;;;2.03;;
65636;SDS011;52327;42.622;23.316;2023-03-01T00:25:47;4.47;;;2.47;;
65636;SDS011;52327;42.622;23.316;2023-03-01T00:28:13;3.53;;;2.33;;
65636;SDS011;52327;42.622;23.316;2023-03-01T00:30:38;2.30;;;1.88;;
65636;SDS011;52327;42.622;23.316;2023-03-01T00:33:04;5.35;;;2.85;;
65636;SDS011;52327;42.622;23.316;2023-03-01T00:35:29;3.50;;;2.15;;
65636;SDS011;52327;42.622;23.316;2023-03-01T00:37:57;3.22;;;2.67;;
65636;SDS011;52327;42.622;23.316;2023-03-01T00:40:28;4.22;;;2.42;;
65636;SDS011;52327;42.622;23.316;2023-03-01T00:42:56;5.18;;;2.40;;
65636;SDS011;52327;42.622;23.316;2023-03-01T00:45:22;2.50;;;1.73;;
65636;SDS011;52327;42.622;23.316;2023-03-01T00:47:48;1.95;;;1.38;;
65636;SDS011;52327;42.622;23.316;2023-03-01T00:50:14;1.25;;;1.15;;
65636;SDS011;52327;42.622;23.316;2023-03-01T00:52:40;1.25;;;0.90;;
65636;SDS011;52327;42.622;23.316;2023-03-01T00:55:06;0.40;;;0.40;;
65636;SDS011;52327;42.622;23.316;2023-03-01T00:57:32;0.47;;;0.47;;
65636;SDS011;52327;42.622;23.316;2023-03-01T00:59:58;1.00;;;0.75;;
65636;SDS011;52327;42.622;23.316;2023-03-01T01:02:24;0.47;;;0.47;;
65636;SDS011;52327;42.622;23.316;2023-03-01T01:04:50;0.60;;;0.60;;
65636;SDS011;52327;42.622;23.316;2023-03-01T01:07:15;0.80;;;0.55;;
65636;SDS011;52327;42.622;23.316;2023-03-01T01:09:41;1.17;;;0.90;;
65636;SDS011;52327;42.622;23.316;2023-03-01T01:12:06;0.63;;;0.60;;
65636;SDS011;52327;42.622;23.316;2023-03-01T01:14:32;0.45;;;0.40;;
65636;SDS011;52327;42.622;23.316;2023-03-01T01:16:58;0.47;;;0.47;;
65636;SDS011;52327;42.622;23.316;2023-03-01T01:19:24;0.73;;;0.45;;
65636;SDS011;52327;42.622;23.316;2023-03-01T01:21:52;1.42;;;0.50;;
65636;SDS011;52327;42.622;23.316;2023-03-01T01:24:17;0.50;;;0.50;;
65636;SDS011;52327;42.622;23.316;2023-03-01T01:26:43;1.02;;;0.75;;
65636;SDS011;52327;42.622;23.316;2023-03-01T01:29:09;0.30;;;0.30;;
65636;SDS011;52327;42.622;23.316;2023-03-01T01:31:36;0.73;;;0.70;;
65636;SDS011;52327;42.622;23.316;2023-03-01T01:34:03;0.82;;;0.70;;
65636;SDS011;52327;42.622;23.316;2023-03-01T01:36:30;0.88;;;0.80;;
65636;SDS011;52327;42.622;23.316;2023-03-01T01:38:56;0.75;;;0.50;;
65636;SDS011;52327;42.622;23.316;2023-03-01T01:41:22;1.55;;;0.70;;
65636;SDS011;52327;42.622;23.316;2023-03-01T01:43:49;1.00;;;0.77;;
65636;SDS011;52327;42.622;23.316;2023-03-01T01:46:33;0.55;;;0.55;;
65636;SDS011;52327;42.622;23.316;2023-03-01T01:49:07;0.85;;;0.45;;
65636;SDS011;52327;42.622;23.316;2023-03-01T01:51:40;3.35;;;1.73;;
65636;SDS011;52327;42.622;23.316;2023-03-01T01:54:10;1.48;;;0.73;;
65636;SDS011;52327;42.622;23.316;2023-03-01T01:56:39;1.42;;;1.25;;
65636;SDS011;52327;42.622;23.316;2023-03-01T01:59:09;1.10;;;1.00;;
65636;SDS011;52327;42.622;23.316;2023-03-01T02:01:35;0.75;;;0.63;;
65636;SDS011;52327;42.622;23.316;2023-03-01T02:04:01;1.45;;;0.80;;
65636;SDS011;52327;42.622;23.316;2023-03-01T02:06:31;0.85;;;0.68;;
65636;SDS011;52327;42.622;23.316;2023-03-01T02:09:00;0.73;;;0.60;;
65636;SDS011;52327;42.622;23.316;2023-03-01T02:11:30;1.70;;;1.08;;
65636;SDS011;52327;42.622;23.316;2023-03-01T02:13:57;1.00;;;0.60;;
65636;SDS011;52327;42.622;23.316;2023-03-01T02:16:22;1.65;;;0.90;;
65636;SDS011;52327;42.622;23.316;2023-03-01T02:18:48;0.45;;;0.45;;
65636;SDS011;52327;42.622;23.316;2023-03-01T02:24:09;0.38;;;0.38;;
65636;SDS011;52327;42.622;23.316;2023-03-01T02:26:47;0.98;;;0.80;;
65636;SDS011;52327;42.622;23.316;2023-03-01T02:29:15;0.45;;;0.45;;
65636;SDS011;52327;42.622;23.316;2023-03-01T02:31:40;1.23;;;0.98;;
65636;SDS011;52327;42.622;23.316;2023-03-01T02:34:06;1.75;;;0.75;;
65636;SDS011;52327;42.622;23.316;2023-03-01T02:36:35;2.67;;;1.70;;
65636;SDS011;52327;42.622;23.316;2023-03-01T02:39:03;1.05;;;0.80;;
65636;SDS011;52327;42.622;23.316;2023-03-01T02:41:32;1.00;;;0.68;;
65636;SDS011;52327;42.622;23.316;2023-03-01T02:44:02;1.27;;;0.90;;
65636;SDS011;52327;42.622;23.316;2023-03-01T02:46:28;0.47;;;0.47;;
65636;SDS011;52327;42.622;23.316;2023-03-01T02:48:57;1.20;;;0.80;;
65636;SDS011;52327;42.622;23.316;2023-03-01T02:51:31;3.22;;;1.08;;
65636;SDS011;52327;42.622;23.316;2023-03-01T02:56:33;0.45;;;0.45;;
65636;SDS011;52327;42.622;23.316;2023-03-01T02:58:59;0.55;;;0.55;;
65636;SDS011;52327;42.622;23.316;2023-03-01T03:01:25;1.00;;;0.90;;
65636;SDS011;52327;42.622;23.316;2023-03-01T03:04:02;0.85;;;0.80;;
65636;SDS011;52327;42.622;23.316;2023-03-01T03:06:28;1.42;;;1.08;;
65636;SDS011;52327;42.622;23.316;2023-03-01T03:08:54;0.73;;;0.68;;
65636;SDS011;52327;42.622;23.316;2023-03-01T03:11:19;1.10;;;1.00;;
65636;SDS011;52327;42.622;23.316;2023-03-01T03:13:45;0.98;;;0.63;;
65636;SDS011;52327;42.622;23.316;2023-03-01T03:16:13;1.25;;;0.95;;
65636;SDS011;52327;42.622;23.316;2023-03-01T03:18:39;1.00;;;0.73;;
65636;SDS011;52327;42.622;23.316;2023-03-01T03:21:07;2.25;;;1.50;;
65636;SDS011;52327;42.622;23.316;2023-03-01T03:23:36;0.93;;;0.93;;
65636;SDS011;52327;42.622;23.316;2023-03-01T03:26:03;0.80;;;0.75;;
65636;SDS011;52327;42.622;23.316;2023-03-01T03:28:29;1.00;;;0.90;;
65636;SDS011;52327;42.622;23.316;2023-03-01T03:30:55;0.60;;;0.60;;
65636;SDS011;52327;42.622;23.316;2023-03-01T03:33:21;0.52;;;0.50;;
65636;SDS011;52327;42.622;23.316;2023-03-01T03:35:47;0.52;;;0.52;;
65636;SDS011;52327;42.622;23.316;2023-03-01T03:38:15;0.65;;;0.65;;
65636;SDS011;52327;42.622;23.316;2023-03-01T03:40:43;0.90;;;0.82;;
65636;SDS011;52327;42.622;23.316;2023-03-01T03:43:18;2.63;;;1.90;;
65636;SDS011;52327;42.622;23.316;2023-03-01T03:48:48;1.13;;;0.93;;
65636;SDS011;52327;42.622;23.316;2023-03-01T03:51:15;2.35;;;1.38;;
65636;SDS011;52327;42.622;23.316;2023-03-01T03:53:42;1.60;;;1.35;;
65636;SDS011;52327;42.622;23.316;2023-03-01T03:56:08;1.58;;;1.02;;
65636;SDS011;52327;42.622;23.316;2023-03-01T04:01:17;0.90;;;0.82;;
65636;SDS011;52327;42.622;23.316;2023-03-01T04:04:02;1.35;;;1.25;;
65636;SDS011;52327;42.622;23.316;2023-03-01T04:06:29;1.35;;;1.15;;
65636;SDS011;52327;42.622;23.316;2023-03-01T04:09:03;1.15;;;0.95;;
65636;SDS011;52327;42.622;23.316;2023-03-01T04:11:28;2.35;;;1.45;;
65636;SDS011;52327;42.622;23.316;2023-03-01T04:13:55;1.08;;;0.88;;
65636;SDS011;52327;42.622;23.316;2023-03-01T04:16:22;1.38;;;1.13;;
65636;SDS011;52327;42.622;23.316;2023-03-01T04:18:48;1.15;;;1.00;;
65636;SDS011;52327;42.622;23.316;2023-03-01T04:21:14;1.88;;;1.75;;
65636;SDS011;52327;42.622;23.316;2023-03-01T04:23:40;1.52;;;1.10;;
65636;SDS011;52327;42.622;23.316;2023-03-01T04:26:06;3.08;;;1.85;;
65636;SDS011;52327;42.622;23.316;2023-03-01T04:31:08;2.35;;;1.33;;
65636;SDS011;52327;42.622;23.316;2023-03-01T04:33:39;0.60;;;0.60;;
65636;SDS011;52327;42.622;23.316;2023-03-01T04:36:05;0.80;;;0.55;;
65636;SDS011;52327;42.622;23.316;2023-03-01T04:38:33;1.40;;;1.00;;
65636;SDS011;52327;42.622;23.316;2023-03-01T04:40:59;0.52;;;0.52;;
65636;SDS011;52327;42.622;23.316;2023-03-01T04:43:28;1.20;;;1.10;;
65636;SDS011;52327;42.622;23.316;2023-03-01T04:45:54;1.20;;;0.85;;
65636;SDS011;52327;42.622;23.316;2023-03-01T04:48:19;0.70;;;0.43;;
65636;SDS011;52327;42.622;23.316;2023-03-01T04:50:44;1.55;;;0.95;;
65636;SDS011;52327;42.622;23.316;2023-03-01T04:53:10;1.02;;;0.73;;
65636;SDS011;52327;42.622;23.316;2023-03-01T04:55:35;2.35;;;0.90;;
65636;SDS011;52327;42.622;23.316;2023-03-01T04:58:01;3.70;;;1.27;;
65636;SDS011;52327;42.622;23.316;2023-03-01T05:00:26;1.02;;;0.93;;
65636;SDS011;52327;42.622;23.316;2023-03-01T05:02:55;1.20;;;1.00;;
65636;SDS011;52327;42.622;23.316;2023-03-01T05:07:56;1.92;;;1.30;;
65636;SDS011;52327;42.622;23.316;2023-03-01T05:10:24;1.42;;;0.80;;
65636;SDS011;52327;42.622;23.316;2023-03-01T05:12:51;1.10;;;0.90;;
65636;SDS011;52327;42.622;23.316;2023-03-01T05:15:17;1.80;;;1.25;;
65636;SDS011;52327;42.622;23.316;2023-03-01T05:17:43;1.10;;;0.80;;
65636;SDS011;52327;42.622;23.316;2023-03-01T05:20:09;1.27;;;1.10;;
65636;SDS011;52327;42.622;23.316;2023-03-01T05:22:35;0.73;;;0.70;;
65636;SDS011;52327;42.622;23.316;2023-03-01T05:25:01;0.75;;;0.75;;
65636;SDS011;52327;42.622;23.316;2023-03-01T05:27:28;0.50;;;0.50;;
65636;SDS011;52327;42.622;23.316;2023-03-01T05:30:24;1.20;;;1.10;;
65636;SDS011;52327;42.622;23.316;2023-03-01T05:32:56;0.73;;;0.57;;
65636;SDS011;52327;42.622;23.316;2023-03-01T05:35:22;0.68;;;0.60;;
65636;SDS011;52327;42.622;23.316;2023-03-01T05:37:48;0.47;;;0.47;;
65636;SDS011;52327;42.622;23.316;2023-03-01T05:40:15;0.40;;;0.40;;
65636;SDS011;52327;42.622;23.316;2023-03-01T05:42:48;0.85;;;0.40;;
65636;SDS011;52327;42.622;23.316;2023-03-01T05:45:15;0.40;;;0.40;;
65636;SDS011;52327;42.622;23.316;2023-03-01T05:47:41;0.20;;;0.20;;
65636;SDS011;52327;42.622;23.316;2023-03-01T05:50:18;1.30;;;0.75;;
65636;SDS011;52327;42.622;23.316;2023-03-01T05:52:49;0.17;;;0.17;;
65636;SDS011;52327;42.622;23.316;2023-03-01T05:55:18;0.93;;;0.63;;
65636;SDS011;52327;42.622;23.316;2023-03-01T05:57:44;0.47;;;0.25;;
65636;SDS011;52327;42.622;23.316;2023-03-01T06:00:10;0.47;;;0.43;;
65636;SDS011;52327;42.622;23.316;2023-03-01T06:02:37;0.38;;;0.20;;
65636;SDS011;52327;42.622;23.316;2023-03-01T06:05:03;1.00;;;0.50;;
65636;SDS011;52327;42.622;23.316;2023-03-01T06:07:30;0.68;;;0.50;;
65636;SDS011;52327;42.622;23.316;2023-03-01T06:09:56;0.30;;;0.30;;
65636;SDS011;52327;42.622;23.316;2023-03-01T06:12:21;0.60;;;0.50;;
65636;SDS011;52327;42.622;23.316;2023-03-01T06:14:47;0.70;;;0.45;;
65636;SDS011;52327;42.622;23.316;2023-03-01T06:17:13;0.65;;;0.60;;
65636;SDS011;52327;42.622;23.316;2023-03-01T06:19:38;0.30;;;0.30;;
65636;SDS011;52327;42.622;23.316;2023-03-01T06:22:05;0.85;;;0.45;;
65636;SDS011;52327;42.622;23.316;2023-03-01T06:24:30;1.08;;;0.80;;
65636;SDS011;52327;42.622;23.316;2023-03-01T06:26:56;0.40;;;0.40;;
65636;SDS011;52327;42.622;23.316;2023-03-01T06:29:21;0.20;;;0.20;;
65636;SDS011;52327;42.622;23.316;2023-03-01T06:31:47;0.70;;;0.70;;
65636;SDS011;52327;42.622;23.316;2023-03-01T06:34:13;0.32;;;0.32;;
65636;SDS011;52327;42.622;23.316;2023-03-01T06:36:42;1.45;;;0.47;;
65636;SDS011;52327;42.622;23.316;2023-03-01T06:39:07;0.40;;;0.40;;
65636;SDS011;52327;42.622;23.316;2023-03-01T06:41:33;0.55;;;0.55;;
65636;SDS011;52327;42.622;23.316;2023-03-01T06:43:59;0.40;;;0.40;;
65636;SDS011;52327;42.622;23.316;2023-03-01T06:46:27;1.05;;;0.73;;
65636;SDS011;52327;42.622;23.316;2023-03-01T06:48:53;0.55;;;0.55;;
65636;SDS011;52327;42.622;23.316;2023-03-01T06:51:18;0.35;;;0.35;;
65636;SDS011;52327;42.622;23.316;2023-03-01T06:53:45;0.47;;;0.47;;
65636;SDS011;52327;42.622;23.316;2023-03-01T06:56:11;0.80;;;0.50;;
65636;SDS011;52327;42.622;23.316;2023-03-01T06:58:37;0.60;;;0.60;;
65636;SDS011;52327;42.622;23.316;2023-03-01T07:01:08;1.23;;;0.80;;
65636;SDS011;52327;42.622;23.316;2023-03-01T07:03:34;0.65;;;0.65;;
65636;SDS011;52327;42.622;23.316;2023-03-01T07:05:59;1.95;;;1.48;;
65636;SDS011;52327;42.622;23.316;2023-03-01T07:08:25;0.70;;;0.70;;
65636;SDS011;52327;42.622;23.316;2023-03-01T07:10:57;0.40;;;0.40;;
65636;SDS011;52327;42.622;23.316;2023-03-01T07:13:23;1.77;;;1.48;;
65636;SDS011;52327;42.622;23.316;2023-03-01T07:15:49;1.00;;;0.90;;
65636;SDS011;52327;42.622;23.316;2023-03-01T07:18:14;0.57;;;0.57;;
65636;SDS011;52327;42.622;23.316;2023-03-01T07:20:39;0.35;;;0.35;;
65636;SDS011;52327;42.622;23.316;2023-03-01T07:23:05;0.50;;;0.50;;
65636;SDS011;52327;42.622;23.316;2023-03-01T07:25:31;1.23;;;0.52;;
65636;SDS011;52327;42.622;23.316;2023-03-01T07:27:57;1.35;;;0.68;;
65636;SDS011;52327;42.622;23.316;2023-03-01T07:30:23;0.68;;;0.47;;
65636;SDS011;52327;42.622;23.316;2023-03-01T07:32:51;0.82;;;0.68;;
65636;SDS011;52327;42.622;23.316;2023-03-01T07:35:17;0.68;;;0.65;;
65636;SDS011;52327;42.622;23.316;2023-03-01T07:37:42;0.80;;;0.50;;
65636;SDS011;52327;42.622;23.316;2023-03-01T07:40:08;0.98;;;0.60;;
65636;SDS011;52327;42.622;23.316;2023-03-01T07:42:34;6.88;;;3.63;;
65636;SDS011;52327;42.622;23.316;2023-03-01T07:45:00;6.57;;;3.83;;
65636;SDS011;52327;42.622;23.316;2023-03-01T07:47:25;8.95;;;3.20;;
65636;SDS011;52327;42.622;23.316;2023-03-01T07:49:50;1.75;;;0.95;;
65636;SDS011;52327;42.622;23.316;2023-03-01T07:52:16;0.63;;;0.50;;
65636;SDS011;52327;42.622;23.316;2023-03-01T07:54:44;1.20;;;0.80;;
65636;SDS011;52327;42.622;23.316;2023-03-01T07:57:10;0.80;;;0.50;;
65636;SDS011;52327;42.622;23.316;2023-03-01T07:59:36;1.05;;;0.73;;
65636;SDS011;52327;42.622;23.316;2023-03-01T08:02:01;1.95;;;1.05;;
65636;SDS011;52327;42.622;23.316;2023-03-01T08:04:26;2.17;;;0.52;;
65636;SDS011;52327;42.622;23.316;2023-03-01T08:06:52;0.38;;;0.38;;
65636;SDS011;52327;42.622;23.316;2023-03-01T08:09:19;0.32;;;0.32;;
65636;SDS011;52327;42.622;23.316;2023-03-01T08:11:44;0.52;;;0.52;;
65636;SDS011;52327;42.622;23.316;2023-03-01T08:14:10;1.02;;;0.70;;
65636;SDS011;52327;42.622;23.316;2023-03-01T08:16:35;1.40;;;1.23;;
65636;SDS011;52327;42.622;23.316;2023-03-01T08:19:05;1.17;;;0.93;;
65636;SDS011;52327;42.622;23.316;2023-03-01T08:21:32;0.88;;;0.88;;
65636;SDS011;52327;42.622;23.316;2023-03-01T08:23:59;0.68;;;0.68;;
65636;SDS011;52327;42.622;23.316;2023-03-01T08:26:28;1.85;;;0.98;;
65636;SDS011;52327;42.622;23.316;2023-03-01T08:28:53;1.60;;;1.02;;
65636;SDS011;52327;42.622;23.316;2023-03-01T08:31:20;0.93;;;0.73;;
65636;SDS011;52327;42.622;23.316;2023-03-01T08:33:51;0.85;;;0.73;;
65636;SDS011;52327;42.622;23.316;2023-03-01T08:36:24;1.98;;;0.95;;
65636;SDS011;52327;42.622;23.316;2023-03-01T08:38:50;1.42;;;1.05;;
65636;SDS011;52327;42.622;23.316;2023-03-01T08:41:16;0.50;;;0.50;;
65636;SDS011;52327;42.622;23.316;2023-03-01T08:43:42;1.27;;;0.90;;
65636;SDS011;52327;42.622;23.316;2023-03-01T08:46:07;1.08;;;0.75;;
65636;SDS011;52327;42.622;23.316;2023-03-01T08:48:33;1.00;;;0.70;;
65636;SDS011;52327;42.622;23.316;2023-03-01T08:51:15;0.70;;;0.70;;
65636;SDS011;52327;42.622;23.316;2023-03-01T08:53:42;2.38;;;0.95;;
65636;SDS011;52327;42.622;23.316;2023-03-01T08:56:07;2.25;;;0.88;;
65636;SDS011;52327;42.622;23.316;2023-03-01T08:58:34;1.08;;;0.85;;
65636;SDS011;52327;42.622;23.316;2023-03-01T09:00:59;1.30;;;1.10;;
65636;SDS011;52327;42.622;23.316;2023-03-01T09:03:25;3.25;;;1.27;;
65636;SDS011;52327;42.622;23.316;2023-03-01T09:05:51;1.58;;;1.00;;
65636;SDS011;52327;42.622;23.316;2023-03-01T09:08:18;1.35;;;1.00;;
65636;SDS011;52327;42.622;23.316;2023-03-01T09:10:44;2.35;;;1.02;;
65636;SDS011;52327;42.622;23.316;2023-03-01T09:13:10;2.10;;;0.98;;
65636;SDS011;52327;42.622;23.316;2023-03-01T09:15:39;1.42;;;0.85;;
65636;SDS011;52327;42.622;23.316;2023-03-01T09:18:04;0.85;;;0.65;;
65636;SDS011;52327;42.622;23.316;2023-03-01T09:20:30;1.25;;;0.82;;
65636;SDS011;52327;42.622;23.316;2023-03-01T09:22:57;0.40;;;0.40;;
65636;SDS011;52327;42.622;23.316;2023-03-01T09:25:23;0.93;;;0.75;;
65636;SDS011;52327;42.622;23.316;2023-03-01T09:27:52;0.22;;;0.22;;
65636;SDS011;52327;42.622;23.316;2023-03-01T09:30:18;2.33;;;1.30;;
65636;SDS011;52327;42.622;23.316;2023-03-01T09:32:44;1.27;;;1.13;;
65636;SDS011;52327;42.622;23.316;2023-03-01T09:35:10;0.98;;;0.60;;
65636;SDS011;52327;42.622;23.316;2023-03-01T09:37:36;0.82;;;0.82;;
65636;SDS011;52327;42.622;23.316;2023-03-01T09:40:03;1.20;;;0.90;;
65636;SDS011;52327;42.622;23.316;2023-03-01T09:42:31;0.50;;;0.50;;
65636;SDS011;52327;42.622;23.316;2023-03-01T09:45:34;0.90;;;0.63;;
65636;SDS011;52327;42.622;23.316;2023-03-01T09:48:03;1.00;;;0.75;;
65636;SDS011;52327;42.622;23.316;2023-03-01T09:50:35;1.15;;;0.65;;
65636;SDS011;52327;42.622;23.316;2023-03-01T09:53:07;0.75;;;0.75;;
65636;SDS011;52327;42.622;23.316;2023-03-01T09:58:16;2.30;;;1.08;;
65636;SDS011;52327;42.622;23.316;2023-03-01T10:00:47;0.70;;;0.57;;
65636;SDS011;52327;42.622;23.316;2023-03-01T10:03:24;0.70;;;0.70;;
65636;SDS011;52327;42.622;23.316;2023-03-01T10:06:23;1.63;;;1.13;;
65636;SDS011;52327;42.622;23.316;2023-03-01T10:11:26;1.50;;;0.70;;
65636;SDS011;52327;42.622;23.316;2023-03-01T10:14:21;3.92;;;1.83;;
65636;SDS011;52327;42.622;23.316;2023-03-01T10:19:30;2.70;;;1.08;;
65636;SDS011;52327;42.622;23.316;2023-03-01T10:22:32;1.48;;;1.13;;
65636;SDS011;52327;42.622;23.316;2023-03-01T10:24:57;1.70;;;0.85;;
65636;SDS011;52327;42.622;23.316;2023-03-01T10:27:25;0.85;;;0.73;;
65636;SDS011;52327;42.622;23.316;2023-03-01T10:32:37;1.15;;;0.70;;
65636;SDS011;52327;42.622;23.316;2023-03-01T10:35:19;1.35;;;0.90;;
65636;SDS011;52327;42.622;23.316;2023-03-01T10:37:56;2.53;;;1.05;;
65636;SDS011;52327;42.622;23.316;2023-03-01T10:40:33;2.03;;;1.20;;
65636;SDS011;52327;42.622;23.316;2023-03-01T10:43:01;3.13;;;1.55;;
65636;SDS011;52327;42.622;23.316;2023-03-01T10:50:45;2.63;;;1.00;;
65636;SDS011;52327;42.622;23.316;2023-03-01T10:53:19;0.80;;;0.80;;
65636;SDS011;52327;42.622;23.316;2023-03-01T10:55:58;2.28;;;1.30;;
65636;SDS011;52327;42.622;23.316;2023-03-01T10:58:29;1.75;;;0.90;;
65636;SDS011;52327;42.622;23.316;2023-03-01T11:03:29;3.35;;;1.42;;
65636;SDS011;52327;42.622;23.316;2023-03-01T11:08:43;1.33;;;1.10;;
65636;SDS011;52327;42.622;23.316;2023-03-01T11:17:04;1.55;;;1.25;;
65636;SDS011;52327;42.622;23.316;2023-03-01T11:22:46;0.73;;;0.70;;
65636;SDS011;52327;42.622;23.316;2023-03-01T11:25:14;2.25;;;1.02;;
65636;SDS011;52327;42.622;23.316;2023-03-01T11:27:43;3.55;;;1.23;;
65636;SDS011;52327;42.622;23.316;2023-03-01T11:30:15;2.15;;;1.02;;
65636;SDS011;52327;42.622;23.316;2023-03-01T11:32:47;1.67;;;1.30;;
65636;SDS011;52327;42.622;23.316;2023-03-01T11:35:31;2.35;;;1.40;;
65636;SDS011;52327;42.622;23.316;2023-03-01T11:41:05;1.85;;;1.23;;
65636;SDS011;52327;42.622;23.316;2023-03-01T11:43:37;1.90;;;1.50;;
65636;SDS011;52327;42.622;23.316;2023-03-01T11:51:59;2.28;;;1.00;;
65636;SDS011;52327;42.622;23.316;2023-03-01T11:59:57;1.83;;;1.42;;
65636;SDS011;52327;42.622;23.316;2023-03-01T12:05:37;3.08;;;1.73;;
65636;SDS011;52327;42.622;23.316;2023-03-01T12:13:43;1.00;;;0.90;;
65636;SDS011;52327;42.622;23.316;2023-03-01T12:19:27;3.45;;;1.83;;
65636;SDS011;52327;42.622;23.316;2023-03-01T12:22:31;1.85;;;1.30;;
65636;SDS011;52327;42.622;23.316;2023-03-01T12:27:56;1.40;;;1.30;;
65636;SDS011;52327;42.622;23.316;2023-03-01T12:47:07;1.30;;;0.98;;
65636;SDS011;52327;42.622;23.316;2023-03-01T12:52:33;0.95;;;0.82;;
65636;SDS011;52327;42.622;23.316;2023-03-01T12:55:06;1.40;;;1.05;;
65636;SDS011;52327;42.622;23.316;2023-03-01T12:57:46;2.47;;;1.40;;
65636;SDS011;52327;42.622;23.316;2023-03-01T13:05:46;2.45;;;1.10;;
65636;SDS011;52327;42.622;23.316;2023-03-01T13:08:44;2.17;;;1.65;;
65636;SDS011;52327;42.622;23.316;2023-03-01T13:11:25;2.53;;;1.17;;
65636;SDS011;52327;42.622;23.316;2023-03-01T13:13:50;0.85;;;0.63;;
65636;SDS011;52327;42.622;23.316;2023-03-01T13:16:20;1.45;;;0.90;;
65636;SDS011;52327;42.622;23.316;2023-03-01T13:21:33;0.60;;;0.60;;
65636;SDS011;52327;42.622;23.316;2023-03-01T13:23:58;1.88;;;0.82;;
65636;SDS011;52327;42.622;23.316;2023-03-01T13:26:24;1.17;;;0.93;;
65636;SDS011;52327;42.622;23.316;2023-03-01T13:28:50;1.15;;;1.00;;
65636;SDS011;52327;42.622;23.316;2023-03-01T13:41:54;1.77;;;0.95;;
65636;SDS011;52327;42.622;23.316;2023-03-01T13:44:32;2.50;;;1.65;;
65636;SDS011;52327;42.622;23.316;2023-03-01T13:47:13;2.47;;;1.30;;
65636;SDS011;52327;42.622;23.316;2023-03-01T13:49:53;2.10;;;1.58;;
65636;SDS011;52327;42.622;23.316;2023-03-01T13:55:24;2.95;;;1.63;;
65636;SDS011;52327;42.622;23.316;2023-03-01T13:57:56;2.13;;;1.33;;
65636;SDS011;52327;42.622;23.316;2023-03-01T14:05:41;2.10;;;1.40;;
65636;SDS011;52327;42.622;23.316;2023-03-01T14:08:18;2.13;;;1.37;;
65636;SDS011;52327;42.622;23.316;2023-03-01T14:10:49;4.63;;;1.77;;
65636;SDS011;52327;42.622;23.316;2023-03-01T14:13:39;2.70;;;1.45;;
65636;SDS011;52327;42.622;23.316;2023-03-01T14:21:41;3.00;;;1.77;;
65636;SDS011;52327;42.622;23.316;2023-03-01T14:24:15;2.10;;;1.30;;
65636;SDS011;52327;42.622;23.316;2023-03-01T14:26:42;2.70;;;1.48;;
65636;SDS011;52327;42.622;23.316;2023-03-01T14:29:22;7.03;;;1.85;;
65636;SDS011;52327;42.622;23.316;2023-03-01T14:31:52;1.27;;;0.98;;
65636;SDS011;52327;42.622;23.316;2023-03-01T14:34:21;1.23;;;1.08;;
65636;SDS011;52327;42.622;23.316;2023-03-01T14:36:48;3.03;;;1.63;;
65636;SDS011;52327;42.622;23.316;2023-03-01T14:39:23;1.73;;;1.10;;
65636;SDS011;52327;42.622;23.316;2023-03-01T14:41:51;2.13;;;1.27;;
65636;SDS011;52327;42.622;23.316;2023-03-01T14:44:21;2.80;;;1.67;;
65636;SDS011;52327;42.622;23.316;2023-03-01T14:46:51;2.67;;;2.05;;
65636;SDS011;52327;42.622;23.316;2023-03-01T14:49:20;1.42;;;1.30;;
65636;SDS011;52327;42.622;23.316;2023-03-01T14:54:41;4.75;;;2.22;;
65636;SDS011;52327;42.622;23.316;2023-03-01T14:57:15;1.63;;;1.02;;
65636;SDS011;52327;42.622;23.316;2023-03-01T14:59:43;1.88;;;1.55;;
65636;SDS011;52327;42.622;23.316;2023-03-01T15:02:12;2.97;;;1.92;;
65636;SDS011;52327;42.622;23.316;2023-03-01T15:04:48;3.72;;;1.98;;
65636;SDS011;52327;42.622;23.316;2023-03-01T15:07:16;4.18;;;1.48;;
65636;SDS011;52327;42.622;23.316;2023-03-01T15:09:43;3.13;;;1.77;;
65636;SDS011;52327;42.622;23.316;2023-03-01T15:14:52;2.15;;;1.52;;
65636;SDS011;52327;42.622;23.316;2023-03-01T15:17:31;1.77;;;1.52;;
65636;SDS011;52327;42.622;23.316;2023-03-01T15:20:02;5.00;;;2.05;;
65636;SDS011;52327;42.622;23.316;2023-03-01T15:22:43;1.98;;;1.42;;
65636;SDS011;52327;42.622;23.316;2023-03-01T15:25:17;3.20;;;1.73;;
65636;SDS011;52327;42.622;23.316;2023-03-01T15:27:47;2.47;;;1.70;;
65636;SDS011;52327;42.622;23.316;2023-03-01T15:30:19;2.25;;;1.20;;
65636;SDS011;52327;42.622;23.316;2023-03-01T15:33:15;2.85;;;1.98;;
65636;SDS011;52327;42.622;23.316;2023-03-01T15:35:44;2.13;;;1.88;;
65636;SDS011;52327;42.622;23.316;2023-03-01T15:40:56;2.97;;;1.40;;
65636;SDS011;52327;42.622;23.316;2023-03-01T15:46:25;3.55;;;2.28;;
65636;SDS011;52327;42.622;23.316;2023-03-01T15:49:03;2.38;;;1.92;;
65636;SDS011;52327;42.622;23.316;2023-03-01T15:51:34;2.42;;;1.48;;
65636;SDS011;52327;42.622;23.316;2023-03-01T15:54:20;2.03;;;1.35;;
65636;SDS011;52327;42.622;23.316;2023-03-01T15:56:48;3.40;;;2.15;;
65636;SDS011;52327;42.622;23.316;2023-03-01T15:59:14;4.68;;;3.13;;
65636;SDS011;52327;42.622;23.316;2023-03-01T16:01:42;3.72;;;3.20;;
65636;SDS011;52327;42.622;23.316;2023-03-01T16:04:09;3.83;;;2.70;;
65636;SDS011;52327;42.622;23.316;2023-03-01T16:06:38;2.47;;;2.03;;
65636;SDS011;52327;42.622;23.316;2023-03-01T16:09:04;3.33;;;1.50;;
65636;SDS011;52327;42.622;23.316;2023-03-01T16:11:30;4.07;;;2.20;;
65636;SDS011;52327;42.622;23.316;2023-03-01T16:13:57;2.08;;;1.33;;
65636;SDS011;52327;42.622;23.316;2023-03-01T16:16:23;6.00;;;1.67;;
65636;SDS011;52327;42.622;23.316;2023-03-01T16:18:48;2.33;;;1.33;;
65636;SDS011;52327;42.622;23.316;2023-03-01T16:21:23;3.03;;;1.85;;
65636;SDS011;52327;42.622;23.316;2023-03-01T16:23:50;4.10;;;2.33;;
65636;SDS011;52327;42.622;23.316;2023-03-01T16:26:16;2.78;;;2.10;;
65636;SDS011;52327;42.622;23.316;2023-03-01T16:28:42;3.65;;;1.88;;
65636;SDS011;52327;42.622;23.316;2023-03-01T16:31:09;2.17;;;1.27;;
65636;SDS011;52327;42.622;23.316;2023-03-01T16:33:35;2.72;;;1.85;;
65636;SDS011;52327;42.622;23.316;2023-03-01T16:36:10;2.80;;;1.50;;
65636;SDS011;52327;42.622;23.316;2023-03-01T16:38:37;3.45;;;1.33;;
65636;SDS011;52327;42.622;23.316;2023-03-01T16:41:03;4.78;;;1.55;;
65636;SDS011;52327;42.622;23.316;2023-03-01T16:43:29;5.95;;;2.20;;
65636;SDS011;52327;42.622;23.316;2023-03-01T16:45:56;2.20;;;1.38;;
65636;SDS011;52327;42.622;23.316;2023-03-01T16:48:21;4.07;;;1.95;;
65636;SDS011;52327;42.622;23.316;2023-03-01T16:50:55;4.80;;;1.95;;
65636;SDS011;52327;42.622;23.316;2023-03-01T16:53:21;2.85;;;2.35;;
65636;SDS011;52327;42.622;23.316;2023-03-01T16:55:52;3.15;;;2.05;;
65636;SDS011;52327;42.622;23.316;2023-03-01T16:58:18;4.55;;;2.33;;
65636;SDS011;52327;42.622;23.316;2023-03-01T17:00:44;3.33;;;2.38;;
65636;SDS011;52327;42.622;23.316;2023-03-01T17:03:09;5.63;;;2.22;;
65636;SDS011;52327;42.622;23.316;2023-03-01T17:05:34;4.63;;;2.25;;